»·PEaware :: N100RP krhv-kmry

N100RP :: krhv-kmry

FLIGHT INFORMATION

Flight Status: Arrived
Operator: Privately registered:
United States
More flights under this callsign
Pilot: Kevin M. (7)
Aircraft: PIPER PA-46-310/350P MALIBU MIRAGE
(PA46)
More flights by this aircraft type
Origin: krhv Reid-Hillview
United States
Destination: kmry Monterey Peninsula
United States
More flights between these airports :: More routes between these airports
Route: +HDG290 RV SJC V485 LICKE SNS
File this flight plan on PilotEdge
Remarks: LTF
Altitude:
(Current/Filed)
10,000ft
Speed:
(Current/Filed)
115kts
Departed: 22-May-11 05:52 PM
Arrived: 22-May-11 06:30 PM
Distance/Time
Traveled:
45nm/0:37
Distance/Time
To Go:
Arrived

Flight Plot

Page will automatically refresh every two minutes.

Flight plan parsing failed; only flown route is shown


Map Options




Map Legend


Flown Route
Filed Route
Departure Airport
Arrival Airport
Navaid (VOR, NDB)
Fix

Horizontal Profiles

Position Reports

Time Latitude Longitude Heading Altitude Ground
Speed
22-May-11 17:27 37.334402 -121.815806 142 136ft 0kts
22-May-11 17:28 37.334402 -121.815806 142 136ft 0kts
22-May-11 17:29 37.334402 -121.815806 142 136ft 0kts
22-May-11 17:30 37.334402 -121.815806 142 136ft 0kts
22-May-11 17:31 37.334402 -121.815806 142 136ft 0kts
22-May-11 17:32 37.334402 -121.815806 142 136ft 0kts
22-May-11 17:33 37.334402 -121.815806 142 136ft 0kts
22-May-11 17:34 37.334402 -121.815806 142 136ft 0kts
22-May-11 17:35 37.334402 -121.815806 142 136ft 0kts
22-May-11 17:36 37.334402 -121.815806 142 136ft 0kts
22-May-11 17:37 37.334402 -121.815806 142 136ft 0kts
22-May-11 17:38 37.334402 -121.815806 142 136ft 0kts
22-May-11 17:39 37.334402 -121.815806 142 136ft 0kts
22-May-11 17:40 37.334402 -121.815806 142 136ft 0kts
22-May-11 17:41 37.334402 -121.815806 142 136ft 0kts
22-May-11 17:42 37.334402 -121.815806 142 136ft 0kts
22-May-11 17:43 37.334402 -121.815806 142 136ft 0kts
22-May-11 17:44 37.334402 -121.815806 142 136ft 0kts
22-May-11 17:45 37.334402 -121.815806 142 136ft 0kts
22-May-11 17:46 37.334402 -121.815806 142 136ft 0kts
22-May-11 17:47 37.334112 -121.816331 295 136ft 1kts
22-May-11 17:48 37.331584 -121.814972 143 136ft 30kts
22-May-11 17:49 37.329937 -121.815548 228 136ft 5kts
22-May-11 17:51 37.342027 -121.829771 300 560ft 100kts
22-May-11 17:52 37.358699 -121.856484 310 1409ft 131kts
22-May-11 17:53 37.383680 -121.895172 306 2379ft 152kts
22-May-11 17:54 37.374095 -121.929501 197 3883ft 126kts
22-May-11 17:55 37.344365 -121.926157 166 5569ft 100kts
22-May-11 17:56 37.317056 -121.912643 164 6554ft 128kts
22-May-11 17:57 37.279242 -121.894937 161 7394ft 159kts
22-May-11 17:58 37.235626 -121.874355 162 8207ft 173kts
22-May-11 17:59 37.189734 -121.852491 164 9010ft 179kts
22-May-11 18:01 37.092751 -121.806351 163 9939ft 202kts
22-May-11 18:02 37.039293 -121.780859 164 9948ft 206kts
22-May-11 18:03 36.988667 -121.756497 166 9945ft 185kts
22-May-11 18:04 36.938877 -121.732865 163 9524ft 201kts
22-May-11 18:05 36.891266 -121.710042 163 8789ft 170kts
22-May-11 18:06 36.847932 -121.689504 163 8087ft 173kts
22-May-11 18:07 36.799183 -121.666648 163 7404ft 195kts
22-May-11 18:08 36.749931 -121.643407 163 6676ft 177kts
22-May-11 18:09 36.705570 -121.622595 162 5987ft 165kts
22-May-11 18:10 36.663936 -121.603180 165 5947ft 174kts
22-May-11 18:11 36.617340 -121.581622 162 5937ft 172kts
22-May-11 18:12 36.573026 -121.561152 163 5938ft 170kts
22-May-11 18:13 36.529054 -121.540910 163 5939ft 184kts
22-May-11 18:14 36.483379 -121.519643 173 5925ft 135kts
22-May-11 18:15 36.464379 -121.486387 118 5953ft 140kts
22-May-11 18:16 36.465517 -121.440415 21 5970ft 154kts
22-May-11 18:17 36.479149 -121.464565 226 5992ft 130kts
22-May-11 18:18 36.475475 -121.503628 275 5946ft 110kts
22-May-11 18:19 36.485090 -121.540895 283 5313ft 127kts
22-May-11 18:20 36.498467 -121.582773 285 4272ft 129kts
22-May-11 18:21 36.511244 -121.620496 289 4193ft 106kts
22-May-11 18:22 36.522686 -121.654260 284 4130ft 112kts
22-May-11 18:23 36.535522 -121.691759 282 3317ft 105kts
22-May-11 18:24 36.546753 -121.720685 281 3354ft 88kts
22-May-11 18:25 36.556695 -121.754257 285 2864ft 97kts
22-May-11 18:26 36.567196 -121.785474 295 2485ft 89kts
22-May-11 18:27 36.578039 -121.815128 285 1294ft 89kts
22-May-11 18:28 36.585801 -121.840824 293 260ft 51kts
22-May-11 18:29 36.587099 -121.847589 202 260ft 0kts
22-May-11 18:30 36.586269 -121.849636 94 260ft 0kts

Navigation Log

Ident Type
Flight plan parsing failed, navigation log unavailable